Etusivu
METAR-TAF:

METAR-TAF

Lentoasemat :

Mitiga International Airport

Tripoli, Libya

Leveyspiiri: 32-54N, Pituuspiiri: 13-17E, korkeus merenpinnasta: 11 m

METAR: puuttuu

Aika: 07:59 (05:59 UTC)

Sääennuste

Tämä raportti tehtiin 59 minuuttia sitten, kello 05.00 UTC
Ennuste voimassa 27. päivästä klo 06 UTC - 28. päivään klo 06 UTC
Tuuli 2 kn eri suunnista
Näkyvyys: 8000 m
Muutamia pilviä 3000 ft:n korkeudessa
Tulossa
27. päivästä klo 04 UTC - 27. päivään klo 06 UTC
Tuuli 12 kn pohjoisesta
Tulossa
27. päivästä klo 18 UTC - 27. päivään klo 20 UTC
Tuuli 2 kn eri suunnista
Tulossa
28. päivästä klo 03 UTC - 28. päivään klo 05 UTC
Tuuli 12 kn etelästä

TAF: HLLM 270500Z 2706/2806 VRB02KT 8000 FEW030 BECMG 2704/2706 36012KT BECMG 2718/2720 VRB02KT BECMG 2803/2805 18012KT

Säähavainnot ja -ennusteet yli 4000 lentoasemalta (METAR- ja TAF-raportit).

Käytössä olevat sääasemat on merkitty karttaan keltaisilla ja punaisilla pisteillä.

Aseta hiiri pisteen päälle nähdäksesi sääaseman nimen.

Klikkaa sitten nähdäksesi säähavainnot ja -ennusteet.

Kartan vaihtaminen: klikkaa mustalla rastilla varustettuja vihreitä pisteitä, niin voit zoomata sisään; viivalla varustettua vihreää pistettä, niin voit zoomata ulos tai vihreitä nuolia, niin pääset viereisille kartoille.


METAR-TAF: